Time;durP1;ratioP1;P1;durP2;ratioP2;P2;SDS_P1;SDS_P2;PMS_P1;PMS_P2;Temp;Humidity;BMP_temperature;BMP_pressure;BME280_temperature;BME280_humidity;BME280_pressure;Samples;Min_cycle;Max_cycle;Signal;HPM_P1;HPM_P2
2023/07/14 00:00:16;;;;;;;2.33;1.50;;;;;;;;;;5016207;28;20409;-65
2023/07/14 00:02:44;;;;;;;2.45;1.30;;;;;;;;;;5012194;28;20022;-66
2023/07/14 00:05:38;;;;;;;3.22;1.45;;;;;;;;;;5021362;28;20017;-65
2023/07/14 00:08:05;;;;;;;2.85;1.30;;;;;;;;;;5014277;28;20043;-65
2023/07/14 00:10:33;;;;;;;3.47;1.92;;;;;;;;;;5016574;28;20044;-65
2023/07/14 00:13:03;;;;;;;2.58;1.40;;;;;;;;;;5015564;28;20053;-65
2023/07/14 00:15:30;;;;;;;3.72;1.40;;;;;;;;;;5022003;28;20484;-65
2023/07/14 00:18:01;;;;;;;2.92;1.65;;;;;;;;;;5020611;28;20037;-66
2023/07/14 00:20:30;;;;;;;2.00;1.27;;;;;;;;;;5018638;28;20017;-65
2023/07/14 00:22:57;;;;;;;2.33;1.55;;;;;;;;;;5021420;28;20021;-65
2023/07/14 00:25:24;;;;;;;2.80;1.45;;;;;;;;;;5024363;28;20064;-65
2023/07/14 00:27:54;;;;;;;3.28;1.52;;;;;;;;;;5023509;28;20080;-65
2023/07/14 00:30:23;;;;;;;1.92;1.38;;;;;;;;;;5014956;28;20602;-65
2023/07/14 00:32:50;;;;;;;1.33;0.95;;;;;;;;;;5018534;28;20629;-65
2023/07/14 00:35:20;;;;;;;3.30;1.70;;;;;;;;;;5018532;28;20041;-65
2023/07/14 00:37:47;;;;;;;2.00;1.73;;;;;;;;;;5022420;28;20024;-65
2023/07/14 00:40:20;;;;;;;3.10;1.90;;;;;;;;;;5020517;28;20251;-65
2023/07/14 00:42:47;;;;;;;4.07;1.90;;;;;;;;;;5015865;28;20095;-66
2023/07/14 00:45:18;;;;;;;2.85;1.50;;;;;;;;;;5021945;28;20025;-66
2023/07/14 00:47:52;;;;;;;2.25;1.48;;;;;;;;;;5020198;28;20504;-65
2023/07/14 00:50:26;;;;;;;3.05;1.70;;;;;;;;;;5015272;28;20025;-65
2023/07/14 00:52:51;;;;;;;3.65;2.00;;;;;;;;;;5013308;28;20048;-65
2023/07/14 00:55:30;;;;;;;4.65;2.25;;;;;;;;;;5016290;28;20438;-65
2023/07/14 00:57:56;;;;;;;3.35;2.08;;;;;;;;;;5019162;28;20441;-65
2023/07/14 01:03:15;;;;;;;5.18;3.03;;;;;;;;;;5018690;28;20032;-65
2023/07/14 01:05:40;;;;;;;3.25;1.75;;;;;;;;;;5018713;28;20025;-65
2023/07/14 01:08:06;;;;;;;3.22;2.00;;;;;;;;;;5017784;28;20028;-65
2023/07/14 01:10:33;;;;;;;5.70;1.88;;;;;;;;;;5023753;28;20021;-66
2023/07/14 01:13:06;;;;;;;2.95;2.03;;;;;;;;;;5020182;28;20398;-65
2023/07/14 01:15:34;;;;;;;3.17;1.90;;;;;;;;;;5018563;28;20040;-65
2023/07/14 01:17:59;;;;;;;4.13;2.72;;;;;;;;;;5016886;28;20489;-65
2023/07/14 01:20:25;;;;;;;3.20;2.05;;;;;;;;;;5021526;28;20116;-65
2023/07/14 01:22:53;;;;;;;4.07;2.00;;;;;;;;;;5021708;28;20022;-65
2023/07/14 01:25:42;;;;;;;3.50;2.17;;;;;;;;;;5017691;28;20021;-65
2023/07/14 01:28:10;;;;;;;3.13;1.77;;;;;;;;;;5017990;28;20036;-65
2023/07/14 01:30:37;;;;;;;3.70;1.90;;;;;;;;;;5017078;28;20037;-65
2023/07/14 01:33:04;;;;;;;2.78;1.90;;;;;;;;;;5023316;28;20040;-65
2023/07/14 01:35:38;;;;;;;3.58;1.85;;;;;;;;;;5016194;28;20036;-65
2023/07/14 01:38:03;;;;;;;2.63;2.03;;;;;;;;;;5015611;28;20075;-65
2023/07/14 01:40:31;;;;;;;4.65;2.05;;;;;;;;;;5016045;28;20026;-65
2023/07/14 01:43:00;;;;;;;3.25;2.00;;;;;;;;;;5000883;28;20020;-66
2023/07/14 01:45:30;;;;;;;3.17;1.77;;;;;;;;;;4994544;28;20037;-65
2023/07/14 01:47:59;;;;;;;2.73;1.67;;;;;;;;;;5017464;28;20032;-65
2023/07/14 01:50:37;;;;;;;3.20;1.70;;;;;;;;;;5016583;28;20091;-65
2023/07/14 01:53:08;;;;;;;3.75;1.90;;;;;;;;;;5018687;28;20014;-65
2023/07/14 01:55:36;;;;;;;3.63;2.10;;;;;;;;;;5013899;28;20500;-65
2023/07/14 01:58:10;;;;;;;3.40;2.17;;;;;;;;;;5016709;28;20112;-65
2023/07/14 02:00:37;;;;;;;4.38;2.42;;;;;;;;;;5012882;28;20025;-65
2023/07/14 02:03:06;;;;;;;4.57;1.92;;;;;;;;;;5013690;28;20068;-66
2023/07/14 02:05:34;;;;;;;4.63;2.05;;;;;;;;;;5022302;28;20492;-65
2023/07/14 02:08:03;;;;;;;3.15;1.90;;;;;;;;;;5020905;28;20033;-65
2023/07/14 02:10:28;;;;;;;3.15;1.90;;;;;;;;;;5017499;28;20113;-65
2023/07/14 02:12:55;;;;;;;3.30;1.80;;;;;;;;;;5020475;28;20116;-65
2023/07/14 02:15:25;;;;;;;4.10;2.00;;;;;;;;;;5021139;28;20018;-65
2023/07/14 02:17:52;;;;;;;3.15;1.77;;;;;;;;;;5014927;28;20034;-65
2023/07/14 02:20:36;;;;;;;4.60;2.30;;;;;;;;;;5014488;28;20694;-65
2023/07/14 02:23:04;;;;;;;2.72;1.80;;;;;;;;;;5013823;28;20543;-65
2023/07/14 02:25:38;;;;;;;3.83;2.50;;;;;;;;;;5017240;28;20776;-65
2023/07/14 02:28:04;;;;;;;4.22;2.25;;;;;;;;;;5019708;28;20742;-65
2023/07/14 02:30:33;;;;;;;3.05;2.00;;;;;;;;;;5014508;28;20025;-65
2023/07/14 02:33:13;;;;;;;4.80;2.22;;;;;;;;;;5020267;28;20044;-65
2023/07/14 02:35:56;;;;;;;4.60;2.42;;;;;;;;;;5009853;28;20072;-65
2023/07/14 02:38:22;;;;;;;4.68;2.30;;;;;;;;;;5023883;28;20112;-65
2023/07/14 02:40:51;;;;;;;3.50;2.40;;;;;;;;;;5020573;28;20100;-65
2023/07/14 02:43:18;;;;;;;4.85;2.10;;;;;;;;;;5018370;28;20021;-65
2023/07/14 02:46:16;;;;;;;4.07;1.90;;;;;;;;;;5014172;28;20030;-65
2023/07/14 02:48:44;;;;;;;3.38;2.22;;;;;;;;;;5019134;28;20030;-65
2023/07/14 02:51:10;;;;;;;3.72;2.50;;;;;;;;;;5022740;28;20056;-66
2023/07/14 02:53:36;;;;;;;4.32;2.00;;;;;;;;;;5013783;28;20058;-65
2023/07/14 02:56:03;;;;;;;3.78;2.00;;;;;;;;;;5019231;28;20385;-65
2023/07/14 02:58:29;;;;;;;2.15;1.83;;;;;;;;;;5018518;28;20656;-65
2023/07/14 03:00:55;;;;;;;3.28;1.88;;;;;;;;;;5017782;28;20593;-65
2023/07/14 03:03:20;;;;;;;4.07;1.98;;;;;;;;;;5016892;28;20026;-65
2023/07/14 03:05:47;;;;;;;4.57;2.20;;;;;;;;;;5013839;28;20050;-65
2023/07/14 03:08:15;;;;;;;3.13;2.28;;;;;;;;;;5015815;28;20445;-65
2023/07/14 03:10:42;;;;;;;2.92;1.92;;;;;;;;;;5019329;28;20539;-65
2023/07/14 03:13:07;;;;;;;4.35;2.10;;;;;;;;;;5020126;28;20025;-65
2023/07/14 03:15:33;;;;;;;4.05;2.40;;;;;;;;;;5012332;28;20540;-65
2023/07/14 03:17:59;;;;;;;3.70;2.45;;;;;;;;;;5013921;28;20044;-65
2023/07/14 03:20:25;;;;;;;3.10;2.03;;;;;;;;;;5016838;28;20549;-65
2023/07/14 03:22:50;;;;;;;3.38;2.10;;;;;;;;;;5017515;28;20100;-65
2023/07/14 03:25:16;;;;;;;3.42;1.88;;;;;;;;;;4998981;28;20137;-65
2023/07/14 03:27:43;;;;;;;3.33;2.33;;;;;;;;;;5013012;28;20022;-65
2023/07/14 03:30:09;;;;;;;4.25;2.20;;;;;;;;;;4994128;28;20108;-65
2023/07/14 03:32:34;;;;;;;3.47;2.15;;;;;;;;;;5016265;28;20025;-64
2023/07/14 03:34:59;;;;;;;3.38;2.50;;;;;;;;;;5018159;28;20017;-65
2023/07/14 03:37:25;;;;;;;5.72;2.20;;;;;;;;;;5013575;28;20021;-65
2023/07/14 03:39:50;;;;;;;3.38;2.15;;;;;;;;;;5017382;28;20029;-66
2023/07/14 03:42:15;;;;;;;4.90;2.25;;;;;;;;;;5018516;28;20048;-65
2023/07/14 03:44:41;;;;;;;3.05;1.92;;;;;;;;;;5020396;28;20062;-66
2023/07/14 03:47:06;;;;;;;3.10;1.80;;;;;;;;;;5016488;28;20032;-65
2023/07/14 03:49:32;;;;;;;2.72;1.90;;;;;;;;;;5017981;28;20030;-65
2023/07/14 03:51:57;;;;;;;2.92;2.20;;;;;;;;;;5016788;28;20080;-66
2023/07/14 03:54:23;;;;;;;3.15;2.30;;;;;;;;;;5019291;28;20033;-65
2023/07/14 03:56:52;;;;;;;6.32;2.10;;;;;;;;;;5017944;28;20517;-66
2023/07/14 03:59:17;;;;;;;2.83;2.08;;;;;;;;;;5015313;28;20030;-65
2023/07/14 04:01:43;;;;;;;4.97;2.10;;;;;;;;;;5021777;28;20025;-65
2023/07/14 04:04:08;;;;;;;3.22;2.10;;;;;;;;;;5018343;28;20554;-65
2023/07/14 04:06:34;;;;;;;2.28;1.70;;;;;;;;;;5023973;28;20037;-65
2023/07/14 04:09:01;;;;;;;3.40;1.92;;;;;;;;;;5016272;28;20116;-65
2023/07/14 04:11:26;;;;;;;5.03;2.50;;;;;;;;;;5017589;28;20034;-65
2023/07/14 04:13:51;;;;;;;2.72;2.05;;;;;;;;;;5017496;28;20083;-65
2023/07/14 04:16:17;;;;;;;6.03;2.40;;;;;;;;;;5020346;28;20034;-65
2023/07/14 04:18:42;;;;;;;2.78;1.90;;;;;;;;;;5023057;28;20167;-65
2023/07/14 04:21:13;;;;;;;3.55;2.15;;;;;;;;;;5016773;28;20026;-66
2023/07/14 04:23:39;;;;;;;5.38;2.28;;;;;;;;;;5021168;28;20032;-65
2023/07/14 04:26:07;;;;;;;3.75;2.17;;;;;;;;;;5019328;28;20029;-65
2023/07/14 04:28:34;;;;;;;3.10;2.10;;;;;;;;;;5021888;28;20799;-65
2023/07/14 04:31:02;;;;;;;4.70;2.38;;;;;;;;;;5015623;28;20026;-65
2023/07/14 04:33:28;;;;;;;3.42;2.17;;;;;;;;;;5018550;28;20024;-66
2023/07/14 04:35:54;;;;;;;5.65;2.53;;;;;;;;;;5018938;28;20029;-65
2023/07/14 04:38:24;;;;;;;2.78;2.08;;;;;;;;;;5014188;28;20465;-65
2023/07/14 04:40:50;;;;;;;3.92;2.45;;;;;;;;;;4995889;28;20026;-65
2023/07/14 04:43:18;;;;;;;3.30;2.42;;;;;;;;;;5017876;28;20560;-65
2023/07/14 04:45:45;;;;;;;3.40;2.30;;;;;;;;;;5016851;28;20021;-66
2023/07/14 04:48:17;;;;;;;4.43;2.28;;;;;;;;;;5017323;28;20524;-65
2023/07/14 04:50:45;;;;;;;2.67;2.25;;;;;;;;;;5020975;28;20037;-65
2023/07/14 04:53:11;;;;;;;3.17;2.38;;;;;;;;;;5015003;28;20029;-65
2023/07/14 04:55:40;;;;;;;3.75;1.98;;;;;;;;;;5014424;28;20668;-66
2023/07/14 04:58:07;;;;;;;3.42;2.33;;;;;;;;;;5017386;28;20022;-65
2023/07/14 05:00:34;;;;;;;3.95;2.30;;;;;;;;;;5001011;28;20046;-65
2023/07/14 05:03:00;;;;;;;5.50;2.40;;;;;;;;;;4999426;28;20037;-65
2023/07/14 05:05:26;;;;;;;3.42;2.05;;;;;;;;;;5012889;28;20025;-66
2023/07/14 05:07:52;;;;;;;4.55;2.63;;;;;;;;;;5015460;28;20018;-66
2023/07/14 05:10:19;;;;;;;4.03;2.03;;;;;;;;;;5017702;28;20025;-65
2023/07/14 05:12:45;;;;;;;3.30;2.28;;;;;;;;;;5012434;28;20141;-65
2023/07/14 05:15:11;;;;;;;2.88;2.00;;;;;;;;;;5015273;28;20494;-65
2023/07/14 05:17:37;;;;;;;5.38;2.42;;;;;;;;;;5013308;28;20026;-66
2023/07/14 05:20:06;;;;;;;3.75;2.17;;;;;;;;;;5015258;28;20021;-65
2023/07/14 05:22:31;;;;;;;2.72;2.10;;;;;;;;;;5017757;28;20136;-65
2023/07/14 05:24:57;;;;;;;3.35;2.20;;;;;;;;;;5014823;28;20182;-66
2023/07/14 05:27:23;;;;;;;5.03;2.30;;;;;;;;;;5017668;28;20475;-65
2023/07/14 05:29:49;;;;;;;3.47;2.10;;;;;;;;;;5022818;28;20040;-65
2023/07/14 05:32:16;;;;;;;5.55;2.30;;;;;;;;;;5014968;28;20022;-65
2023/07/14 05:34:41;;;;;;;5.00;2.45;;;;;;;;;;5014750;28;20046;-67
2023/07/14 05:37:07;;;;;;;5.10;2.83;;;;;;;;;;5012026;28;20574;-64
2023/07/14 05:39:32;;;;;;;2.65;2.22;;;;;;;;;;5021547;28;20028;-65
2023/07/14 05:41:58;;;;;;;4.60;2.03;;;;;;;;;;5018697;28;20091;-64
2023/07/14 05:44:24;;;;;;;3.63;2.10;;;;;;;;;;5016460;28;20194;-64
2023/07/14 05:46:50;;;;;;;2.83;2.20;;;;;;;;;;5023096;28;20029;-64
2023/07/14 05:49:16;;;;;;;5.82;2.40;;;;;;;;;;5018635;28;20025;-66
2023/07/14 05:51:41;;;;;;;4.82;3.08;;;;;;;;;;5003786;28;20025;-67
2023/07/14 05:54:07;;;;;;;5.03;2.47;;;;;;;;;;4999906;28;20413;-66
2023/07/14 05:56:32;;;;;;;4.65;2.65;;;;;;;;;;5017557;28;20035;-65
2023/07/14 05:58:58;;;;;;;4.10;2.30;;;;;;;;;;5019455;28;20029;-65
2023/07/14 06:01:23;;;;;;;4.63;3.13;;;;;;;;;;5020421;28;20116;-66
2023/07/14 06:03:49;;;;;;;3.13;2.47;;;;;;;;;;5020201;28;20497;-66
2023/07/14 06:06:14;;;;;;;3.58;2.40;;;;;;;;;;5018643;28;20071;-67
2023/07/14 06:08:40;;;;;;;2.58;1.52;;;;;;;;;;5018278;28;20025;-65
2023/07/14 06:11:05;;;;;;;4.05;2.80;;;;;;;;;;5015921;28;20039;-66
2023/07/14 06:13:31;;;;;;;4.55;3.10;;;;;;;;;;5014281;28;20466;-65
2023/07/14 06:15:57;;;;;;;4.20;3.28;;;;;;;;;;5017068;28;20030;-66
2023/07/14 06:18:22;;;;;;;6.32;2.63;;;;;;;;;;5018998;28;20028;-67
2023/07/14 06:20:48;;;;;;;4.95;2.63;;;;;;;;;;5018626;28;20440;-66
2023/07/14 06:23:14;;;;;;;3.75;2.67;;;;;;;;;;5016273;28;20093;-65
2023/07/14 06:25:39;;;;;;;6.75;3.03;;;;;;;;;;5011035;28;20026;-68
2023/07/14 06:28:05;;;;;;;4.72;3.25;;;;;;;;;;4991541;28;20486;-67
2023/07/14 06:30:30;;;;;;;4.90;2.50;;;;;;;;;;4993948;28;20030;-66
2023/07/14 06:32:56;;;;;;;4.30;2.47;;;;;;;;;;5011061;28;20033;-66
2023/07/14 06:35:22;;;;;;;4.75;2.85;;;;;;;;;;5013575;28;20030;-67
2023/07/14 06:37:48;;;;;;;2.72;2.20;;;;;;;;;;5001842;28;20064;-65
2023/07/14 06:40:13;;;;;;;4.25;2.45;;;;;;;;;;4999738;28;20088;-66
2023/07/14 06:42:39;;;;;;;4.20;1.65;;;;;;;;;;5010990;28;20533;-67
2023/07/14 06:45:05;;;;;;;4.15;2.67;;;;;;;;;;5006635;28;20052;-66
2023/07/14 06:47:33;;;;;;;5.57;2.72;;;;;;;;;;5014510;28;20029;-65
2023/07/14 06:49:58;;;;;;;5.00;2.58;;;;;;;;;;5011330;28;20033;-65
2023/07/14 06:52:24;;;;;;;6.07;2.67;;;;;;;;;;4992049;28;20583;-66
2023/07/14 06:54:49;;;;;;;4.10;2.63;;;;;;;;;;5004965;28;20025;-65
2023/07/14 06:57:15;;;;;;;3.55;2.65;;;;;;;;;;5011727;28;20033;-65
2023/07/14 06:59:41;;;;;;;4.50;2.90;;;;;;;;;;5011190;28;20699;-65
2023/07/14 07:02:10;;;;;;;5.60;2.80;;;;;;;;;;5010583;28;20028;-65
2023/07/14 07:04:35;;;;;;;6.95;2.90;;;;;;;;;;5013640;28;20023;-65
2023/07/14 07:07:01;;;;;;;4.03;2.60;;;;;;;;;;4991929;28;20025;-65
2023/07/14 07:09:27;;;;;;;3.38;2.60;;;;;;;;;;5010827;28;20584;-68
2023/07/14 07:11:53;;;;;;;3.45;2.58;;;;;;;;;;5010633;28;20018;-65
2023/07/14 07:14:18;;;;;;;4.03;2.65;;;;;;;;;;5012823;28;20036;-65
2023/07/14 07:16:44;;;;;;;4.80;2.70;;;;;;;;;;5014888;28;20030;-66
2023/07/14 07:19:09;;;;;;;5.85;2.63;;;;;;;;;;5019234;28;20029;-65
2023/07/14 07:21:34;;;;;;;3.67;2.58;;;;;;;;;;5015731;28;20469;-69
2023/07/14 07:24:02;;;;;;;4.30;2.42;;;;;;;;;;4997027;28;20048;-66
2023/07/14 07:26:28;;;;;;;4.90;2.20;;;;;;;;;;5015720;28;20034;-67
2023/07/14 07:28:53;;;;;;;5.15;3.50;;;;;;;;;;5015788;28;20429;-68
2023/07/14 07:31:21;;;;;;;3.70;2.35;;;;;;;;;;5012124;28;20029;-67
2023/07/14 07:33:46;;;;;;;3.25;1.65;;;;;;;;;;5016828;28;20025;-67
2023/07/14 07:36:16;;;;;;;5.07;2.00;;;;;;;;;;5013332;28;20493;-67
2023/07/14 07:38:45;;;;;;;3.70;2.00;;;;;;;;;;5015592;28;20082;-67
2023/07/14 07:41:11;;;;;;;3.20;2.05;;;;;;;;;;5019388;28;20453;-67
2023/07/14 07:43:37;;;;;;;2.45;1.58;;;;;;;;;;5021231;28;20615;-67
2023/07/14 07:46:03;;;;;;;3.95;1.67;;;;;;;;;;5016946;28;20025;-67
2023/07/14 07:48:28;;;;;;;4.47;1.90;;;;;;;;;;5019358;28;20061;-68
2023/07/14 07:50:53;;;;;;;1.20;0.90;;;;;;;;;;5014931;28;20035;-68
2023/07/14 07:53:19;;;;;;;4.10;1.75;;;;;;;;;;5012329;28;20036;-67
2023/07/14 07:55:52;;;;;;;2.85;1.70;;;;;;;;;;5016046;28;20029;-67
2023/07/14 07:58:17;;;;;;;2.55;1.58;;;;;;;;;;5013106;28;20026;-67
2023/07/14 08:00:43;;;;;;;3.92;1.75;;;;;;;;;;5018196;28;20087;-67
2023/07/14 08:03:08;;;;;;;3.55;1.45;;;;;;;;;;5017430;28;20497;-67
2023/07/14 08:05:35;;;;;;;2.45;1.52;;;;;;;;;;5014342;28;20061;-67
2023/07/14 08:08:00;;;;;;;2.92;1.63;;;;;;;;;;5015786;28;20134;-67
2023/07/14 08:10:25;;;;;;;2.72;1.77;;;;;;;;;;5019572;28;20612;-67
2023/07/14 08:12:52;;;;;;;3.80;1.90;;;;;;;;;;5009573;28;20109;-67
2023/07/14 08:15:18;;;;;;;2.78;1.38;;;;;;;;;;5020499;28;20030;-67
2023/07/14 08:17:54;;;;;;;1.40;0.98;;;;;;;;;;5017652;28;20396;-67
2023/07/14 08:20:19;;;;;;;3.90;1.60;;;;;;;;;;5013191;28;20030;-67
2023/07/14 08:22:44;;;;;;;3.30;1.80;;;;;;;;;;5014956;28;20025;-68
2023/07/14 08:25:10;;;;;;;1.55;1.08;;;;;;;;;;4997894;28;20037;-68
2023/07/14 08:27:35;;;;;;;2.00;1.40;;;;;;;;;;5017153;28;20562;-68
2023/07/14 08:30:01;;;;;;;2.35;1.02;;;;;;;;;;5014877;28;20117;-68
2023/07/14 08:32:26;;;;;;;4.30;1.90;;;;;;;;;;5015446;28;20117;-68
2023/07/14 08:34:52;;;;;;;3.55;1.55;;;;;;;;;;5018543;28;20074;-68
2023/07/14 08:37:17;;;;;;;2.88;1.60;;;;;;;;;;5017172;28;20076;-68
2023/07/14 08:39:43;;;;;;;3.65;1.30;;;;;;;;;;5010926;28;20116;-68
2023/07/14 08:42:33;;;;;;;3.80;1.80;;;;;;;;;;5010795;28;20022;-68
2023/07/14 08:45:19;;;;;;;1.43;0.90;;;;;;;;;;5016055;28;20584;-67
2023/07/14 08:48:04;;;;;;;1.45;0.80;;;;;;;;;;5017064;28;20418;-68
2023/07/14 08:50:30;;;;;;;3.83;1.73;;;;;;;;;;5021060;28;20895;-68
2023/07/14 08:53:03;;;;;;;3.67;1.73;;;;;;;;;;4999235;28;20041;-67
2023/07/14 08:55:32;;;;;;;4.75;1.80;;;;;;;;;;5014204;28;20025;-68
2023/07/14 08:58:19;;;;;;;3.45;2.03;;;;;;;;;;5015498;28;20063;-68
2023/07/14 09:01:08;;;;;;;2.70;1.35;;;;;;;;;;4994153;28;20041;-68
2023/07/14 09:03:42;;;;;;;2.63;1.50;;;;;;;;;;5014642;28;20065;-68
2023/07/14 09:06:10;;;;;;;4.72;1.75;;;;;;;;;;5019156;28;20034;-67
2023/07/14 09:08:35;;;;;;;2.83;1.67;;;;;;;;;;5016356;28;20054;-67
2023/07/14 09:11:31;;;;;;;4.00;1.38;;;;;;;;;;5017058;28;20486;-67
2023/07/14 09:14:24;;;;;;;1.80;0.85;;;;;;;;;;5013312;28;20025;-68
2023/07/14 09:17:01;;;;;;;2.13;0.98;;;;;;;;;;5008492;28;20037;-68
2023/07/14 09:19:57;;;;;;;2.97;1.70;;;;;;;;;;5011047;28;20021;-67
2023/07/14 09:23:01;;;;;;;2.70;1.55;;;;;;;;;;5015076;28;20020;-68
2023/07/14 09:25:50;;;;;;;2.40;1.73;;;;;;;;;;5016289;28;20727;-67
2023/07/14 09:28:25;;;;;;;4.20;1.95;;;;;;;;;;5017567;28;20084;-68
2023/07/14 09:30:51;;;;;;;3.35;1.50;;;;;;;;;;5015702;28;20113;-67
2023/07/14 09:33:19;;;;;;;3.80;1.80;;;;;;;;;;5015121;28;20137;-68
2023/07/14 09:35:46;;;;;;;3.13;1.63;;;;;;;;;;5014379;28;20419;-68
2023/07/14 09:38:22;;;;;;;3.03;1.30;;;;;;;;;;4994207;28;20418;-68
2023/07/14 09:40:55;;;;;;;2.97;1.40;;;;;;;;;;5015093;28;20037;-68
2023/07/14 09:43:20;;;;;;;2.92;1.73;;;;;;;;;;5016535;28;20031;-68
2023/07/14 09:45:46;;;;;;;3.63;1.73;;;;;;;;;;5017462;28;20029;-68
2023/07/14 09:48:26;;;;;;;3.90;2.22;;;;;;;;;;5012588;28;20021;-67
2023/07/14 09:50:59;;;;;;;2.78;1.77;;;;;;;;;;5010946;28;20025;-68
2023/07/14 09:53:25;;;;;;;3.55;1.90;;;;;;;;;;5009649;28;22006;-68
2023/07/14 09:55:54;;;;;;;2.67;1.60;;;;;;;;;;5011649;28;20034;-68
2023/07/14 09:58:26;;;;;;;2.40;1.60;;;;;;;;;;5014658;28;20064;-68
2023/07/14 10:00:54;;;;;;;3.42;2.05;;;;;;;;;;5013335;28;20434;-68
2023/07/14 10:03:20;;;;;;;3.53;1.90;;;;;;;;;;5011759;28;20186;-67
2023/07/14 10:05:54;;;;;;;5.70;1.73;;;;;;;;;;5014463;28;20033;-68
2023/07/14 10:08:33;;;;;;;2.60;1.25;;;;;;;;;;5010388;28;20030;-68
2023/07/14 10:11:18;;;;;;;3.22;1.77;;;;;;;;;;5010528;28;20103;-67
2023/07/14 10:14:05;;;;;;;3.45;1.90;;;;;;;;;;5007068;28;20053;-68
2023/07/14 10:16:40;;;;;;;3.92;2.20;;;;;;;;;;4979612;28;20128;-69
2023/07/14 10:19:12;;;;;;;3.35;1.95;;;;;;;;;;5010807;28;20039;-67
2023/07/14 10:21:54;;;;;;;3.30;1.50;;;;;;;;;;5010530;28;20037;-68
2023/07/14 10:24:20;;;;;;;3.08;1.98;;;;;;;;;;5011440;28;20056;-68
2023/07/14 10:26:57;;;;;;;2.08;1.17;;;;;;;;;;5012180;28;20053;-67
2023/07/14 10:29:25;;;;;;;3.67;1.73;;;;;;;;;;5011858;28;20421;-67
2023/07/14 10:31:57;;;;;;;3.22;1.65;;;;;;;;;;5011917;28;20029;-68
2023/07/14 10:34:49;;;;;;;2.70;1.70;;;;;;;;;;5014195;28;20029;-67
2023/07/14 10:37:27;;;;;;;3.47;1.50;;;;;;;;;;5006709;28;20450;-68
2023/07/14 10:40:00;;;;;;;4.88;2.25;;;;;;;;;;5010529;28;20037;-68
2023/07/14 10:42:31;;;;;;;2.05;1.45;;;;;;;;;;5007127;28;20022;-68
2023/07/14 10:44:58;;;;;;;5.03;1.95;;;;;;;;;;5009939;28;20107;-67
2023/07/14 10:47:42;;;;;;;2.65;1.73;;;;;;;;;;5014319;28;20071;-68
2023/07/14 10:50:18;;;;;;;5.10;1.95;;;;;;;;;;5011967;28;20053;-67
2023/07/14 10:52:51;;;;;;;4.00;1.77;;;;;;;;;;5010507;28;20026;-68
2023/07/14 10:55:25;;;;;;;2.85;1.77;;;;;;;;;;5012173;28;20041;-68
2023/07/14 10:58:02;;;;;;;4.03;1.70;;;;;;;;;;4990491;28;20034;-68
2023/07/14 11:00:45;;;;;;;3.30;1.50;;;;;;;;;;5009208;28;20128;-68
2023/07/14 11:03:16;;;;;;;5.13;2.38;;;;;;;;;;5007935;28;20557;-68
2023/07/14 11:05:44;;;;;;;;;;;;;;;;;;5011108;28;20033;-68
2023/07/14 11:08:10;;;;;;;4.43;2.30;;;;;;;;;;5010479;28;20396;-68
2023/07/14 11:10:43;;;;;;;3.90;2.30;;;;;;;;;;5013023;28;20587;-68
2023/07/14 11:13:39;;;;;;;2.67;1.55;;;;;;;;;;5008016;28;20490;-68
2023/07/14 11:16:09;;;;;;;3.20;1.95;;;;;;;;;;5012776;28;20028;-67
2023/07/14 11:18:57;;;;;;;2.53;1.60;;;;;;;;;;5012338;28;20051;-67
2023/07/14 11:21:32;;;;;;;2.45;1.45;;;;;;;;;;5009935;28;20026;-68
2023/07/14 11:24:06;;;;;;;3.55;1.98;;;;;;;;;;4989393;28;20049;-68
2023/07/14 11:26:42;;;;;;;3.28;1.95;;;;;;;;;;5008889;28;20032;-68
2023/07/14 11:29:14;;;;;;;3.80;1.80;;;;;;;;;;5013930;28;20026;-68
2023/07/14 11:31:48;;;;;;;;;;;;;;;;;;5017029;28;20397;-67
2023/07/14 11:34:30;;;;;;;3.20;1.90;;;;;;;;;;5011569;28;20426;-68
2023/07/14 11:37:14;;;;;;;1.77;1.25;;;;;;;;;;5011169;28;20045;-67
2023/07/14 11:39:49;;;;;;;3.08;1.83;;;;;;;;;;5012728;28;20053;-68
2023/07/14 11:42:35;;;;;;;4.13;1.98;;;;;;;;;;5014775;28;20030;-67
2023/07/14 11:45:16;;;;;;;3.83;1.70;;;;;;;;;;4978255;28;20048;-67
2023/07/14 11:47:42;;;;;;;3.25;1.60;;;;;;;;;;5009279;28;20192;-67
2023/07/14 11:50:16;;;;;;;2.65;1.60;;;;;;;;;;5012937;28;20566;-67
2023/07/14 11:52:59;;;;;;;3.65;1.63;;;;;;;;;;5017036;28;20018;-68
2023/07/14 11:55:27;;;;;;;2.92;1.55;;;;;;;;;;4992394;28;20541;-68
2023/07/14 11:58:11;;;;;;;2.13;1.50;;;;;;;;;;4987505;28;20041;-68
2023/07/14 12:00:40;;;;;;;2.92;1.52;;;;;;;;;;4987067;28;20033;-67
2023/07/14 12:03:26;;;;;;;4.38;2.00;;;;;;;;;;4993296;28;20569;-68
2023/07/14 12:06:19;;;;;;;4.30;1.88;;;;;;;;;;5012231;28;20083;-67
2023/07/14 12:09:03;;;;;;;2.53;1.35;;;;;;;;;;5010040;28;20041;-69
2023/07/14 12:11:50;;;;;;;2.80;1.80;;;;;;;;;;5014662;28;20473;-69
2023/07/14 12:14:31;;;;;;;3.22;1.65;;;;;;;;;;5010378;28;20100;-69
2023/07/14 12:16:57;;;;;;;2.85;1.73;;;;;;;;;;5015271;28;20042;-69
2023/07/14 12:19:49;;;;;;;2.38;1.50;;;;;;;;;;5014670;28;20034;-68
2023/07/14 12:22:41;;;;;;;4.50;1.70;;;;;;;;;;5017963;28;20029;-68
2023/07/14 12:25:11;;;;;;;3.80;1.90;;;;;;;;;;5017552;28;20033;-68
2023/07/14 12:27:41;;;;;;;5.68;1.70;;;;;;;;;;5013681;28;20032;-68
2023/07/14 12:30:24;;;;;;;2.40;1.70;;;;;;;;;;5013650;28;20026;-69
2023/07/14 12:33:13;;;;;;;3.00;1.80;;;;;;;;;;5012631;28;20038;-69
2023/07/14 12:35:39;;;;;;;2.38;1.40;;;;;;;;;;5016822;28;20108;-68
2023/07/14 12:38:15;;;;;;;3.42;2.05;;;;;;;;;;5016574;28;20584;-68
2023/07/14 12:40:41;;;;;;;3.05;1.70;;;;;;;;;;5013116;28;20029;-69
2023/07/14 12:43:16;;;;;;;3.45;1.70;;;;;;;;;;4994733;28;20808;-66
2023/07/14 12:45:43;;;;;;;3.58;1.77;;;;;;;;;;5011336;28;20044;-67
2023/07/14 12:48:11;;;;;;;3.63;1.85;;;;;;;;;;4998947;28;20029;-67
2023/07/14 12:50:41;;;;;;;2.95;1.27;;;;;;;;;;5012199;28;20578;-67
2023/07/14 12:53:14;;;;;;;2.90;1.80;;;;;;;;;;5014083;28;20026;-67
2023/07/14 12:55:40;;;;;;;3.65;1.88;;;;;;;;;;4999954;28;20025;-67
2023/07/14 12:58:14;;;;;;;3.53;1.75;;;;;;;;;;5016137;28;20090;-67
2023/07/14 13:00:39;;;;;;;4.05;1.98;;;;;;;;;;5010779;28;20034;-68
2023/07/14 13:03:09;;;;;;;4.85;1.88;;;;;;;;;;5013542;28;20017;-68
2023/07/14 13:05:37;;;;;;;4.75;2.25;;;;;;;;;;5016181;28;20447;-68
2023/07/14 13:08:07;;;;;;;2.88;1.48;;;;;;;;;;5009536;28;20030;-67
2023/07/14 13:10:39;;;;;;;4.10;2.28;;;;;;;;;;5016889;28;20579;-67
2023/07/14 13:13:08;;;;;;;3.10;1.90;;;;;;;;;;5014341;28;20038;-68
2023/07/14 13:15:34;;;;;;;3.05;1.70;;;;;;;;;;5009782;28;20083;-67
2023/07/14 13:18:16;;;;;;;3.83;1.92;;;;;;;;;;4995042;28;20045;-67
2023/07/14 13:20:41;;;;;;;2.38;1.40;;;;;;;;;;5013708;28;20037;-68
2023/07/14 13:23:19;;;;;;;3.83;1.98;;;;;;;;;;5008285;28;20612;-66
2023/07/14 13:26:04;;;;;;;2.63;1.77;;;;;;;;;;5006209;28;20045;-67
2023/07/14 13:28:58;;;;;;;2.15;1.33;;;;;;;;;;4995059;28;20052;-68
2023/07/14 13:31:37;;;;;;;4.45;2.00;;;;;;;;;;5013290;28;20031;-68
2023/07/14 13:34:22;;;;;;;2.75;1.95;;;;;;;;;;5010708;28;20020;-68
2023/07/14 13:36:50;;;;;;;4.05;1.83;;;;;;;;;;5010627;28;20037;-68
2023/07/14 13:39:22;;;;;;;4.65;1.90;;;;;;;;;;5010805;28;20030;-67
2023/07/14 13:41:48;;;;;;;2.70;1.60;;;;;;;;;;5012277;28;20496;-68
2023/07/14 13:44:45;;;;;;;7.10;2.20;;;;;;;;;;5010110;28;20029;-68
2023/07/14 13:47:21;;;;;;;2.75;1.60;;;;;;;;;;5009480;28;20026;-68
2023/07/14 13:49:51;;;;;;;5.00;2.10;;;;;;;;;;5009110;28;20029;-69
2023/07/14 13:52:20;;;;;;;4.05;2.25;;;;;;;;;;5012150;28;20033;-68
2023/07/14 13:55:03;;;;;;;3.65;2.25;;;;;;;;;;4996867;28;20033;-68
2023/07/14 13:57:30;;;;;;;3.40;1.90;;;;;;;;;;5013061;28;20029;-68
2023/07/14 13:59:57;;;;;;;4.05;2.08;;;;;;;;;;5012904;28;20064;-68
2023/07/14 14:02:25;;;;;;;5.43;2.20;;;;;;;;;;5007976;28;20021;-68
2023/07/14 14:04:51;;;;;;;3.75;1.90;;;;;;;;;;5010489;28;20021;-68
2023/07/14 14:07:17;;;;;;;2.55;1.85;;;;;;;;;;5013155;28;20025;-68
2023/07/14 14:09:42;;;;;;;2.88;1.40;;;;;;;;;;5011464;28;20633;-68
2023/07/14 14:12:08;;;;;;;3.63;1.80;;;;;;;;;;5007615;28;20025;-69
2023/07/14 14:14:33;;;;;;;2.45;1.10;;;;;;;;;;5012954;28;20041;-68
2023/07/14 14:16:59;;;;;;;2.05;1.30;;;;;;;;;;4995862;28;20044;-68
2023/07/14 14:19:27;;;;;;;2.63;1.65;;;;;;;;;;4994368;28;20037;-68
2023/07/14 14:21:58;;;;;;;3.28;1.73;;;;;;;;;;5008985;28;20029;-66
2023/07/14 14:24:24;;;;;;;3.67;1.98;;;;;;;;;;5012821;28;20033;-67
2023/07/14 14:26:49;;;;;;;4.82;1.80;;;;;;;;;;5017135;28;20037;-66
2023/07/14 14:29:15;;;;;;;3.92;2.00;;;;;;;;;;5020266;28;20029;-67
2023/07/14 14:31:41;;;;;;;5.43;1.75;;;;;;;;;;4995044;28;20032;-67
2023/07/14 14:34:15;;;;;;;3.67;1.92;;;;;;;;;;5012870;28;20022;-66
2023/07/14 14:36:41;;;;;;;2.28;1.60;;;;;;;;;;5011517;28;20756;-67
2023/07/14 14:39:15;;;;;;;2.80;1.58;;;;;;;;;;5014125;28;20109;-66
2023/07/14 14:41:41;;;;;;;3.55;1.60;;;;;;;;;;5011695;28;20753;-67
2023/07/14 14:44:16;;;;;;;3.17;1.73;;;;;;;;;;5020253;28;20057;-66
2023/07/14 14:46:42;;;;;;;2.95;1.83;;;;;;;;;;4993159;28;20602;-66
2023/07/14 14:49:12;;;;;;;2.47;1.65;;;;;;;;;;5017972;28;20051;-67
2023/07/14 14:51:38;;;;;;;2.97;1.83;;;;;;;;;;5023562;28;20377;-66
2023/07/14 14:54:05;;;;;;;3.10;1.65;;;;;;;;;;5017170;28;20108;-67
2023/07/14 14:56:33;;;;;;;6.55;2.20;;;;;;;;;;5015500;28;20072;-66
2023/07/14 14:59:12;;;;;;;4.00;1.90;;;;;;;;;;5010421;28;20033;-66
2023/07/14 15:01:41;;;;;;;3.83;1.90;;;;;;;;;;5019532;28;20022;-66
2023/07/14 15:04:16;;;;;;;2.50;1.80;;;;;;;;;;5011896;28;20083;-66